NCAR-RAP Real-Time Weather Data

Output produced by METARs form (12 May 2021  11:26 UTC)
found at http://weather.rap.ucar.edu/surface/
 
KLAF 121054Z 00000KT 10SM CLR 04/M01 A3041 RMK AO2 SLP301 T00391006
KLAF 120954Z AUTO 00000KT 10SM CLR 03/M01 A3040 RMK AO2 SLP296 T00281006
KLAF 120854Z AUTO 00000KT 10SM CLR 03/M01 A3039 RMK AO2 SLP293 T00281011 53003
KLAF 120754Z AUTO 00000KT 10SM CLR 03/M01 A3038 RMK AO2 SLP289 T00331006
KLAF 120654Z AUTO 00000KT 10SM CLR 06/M01 A3038 RMK AO2 SLP288 T00561006
KLAF 120554Z AUTO 03004KT 10SM CLR 06/M01 A3038 RMK AO2 SLP290 T00561006 10122 20056 58005
KLAF 120454Z AUTO 02005KT 10SM CLR 06/M01 A3040 RMK AO2 SLP296 T00611006 401560061
KLAF 120354Z AUTO 36007KT 10SM CLR 08/M01 A3040 RMK AO2 SLP294 T00781011
KLAF 120254Z AUTO 36006KT 10SM CLR 08/M01 A3040 RMK AO2 SLP296 T00781011 53023
KLAF 120154Z AUTO 35005KT 10SM CLR 09/M01 A3038 RMK AO2 SLP288 T00891011
KLAF 120054Z AUTO 36011KT 10SM CLR 11/M01 A3035 RMK AO2 SLP278 T01061011
KLAF 112354Z 01009KT 10SM CLR 12/M02 A3033 RMK AO2 SLP273 T01221022 10156 20122 53012
KLAF 112254Z 02014KT 10SM CLR 13/M02 A3031 RMK AO2 SLP267 T01331022
KLAF 112154Z 01010G17KT 10SM CLR 15/M01 A3030 RMK AO2 SLP262 T01501006
KLAF 112054Z 35013G23KT 10SM SCT060 15/01 A3029 RMK AO2 SLP259 T01500006 56007
KLAF 111954Z 03010KT 10SM FEW060 15/01 A3030 RMK AO2 SLP260 T01500011